createdAt,value
2018-07-19T00:02:15.005Z,3.40
2018-07-19T00:04:43.578Z,4.67
2018-07-19T00:07:12.271Z,3.80
2018-07-19T00:09:40.882Z,3.73
2018-07-19T00:12:09.479Z,3.60
2018-07-19T00:14:38.041Z,3.57
2018-07-19T00:17:06.834Z,3.43
2018-07-19T00:19:35.385Z,4.20
2018-07-19T00:22:04.019Z,3.63
2018-07-19T00:24:32.516Z,3.53
2018-07-19T00:27:01.068Z,3.83
2018-07-19T00:29:29.626Z,3.70
2018-07-19T00:31:58.216Z,3.40
2018-07-19T00:34:26.771Z,3.90
2018-07-19T00:36:55.404Z,3.10
2018-07-19T00:39:23.939Z,4.00
2018-07-19T00:41:52.527Z,3.10
2018-07-19T00:44:21.059Z,3.30
2018-07-19T00:46:49.635Z,3.43
2018-07-19T00:49:18.171Z,4.27
2018-07-19T00:51:46.845Z,3.50
2018-07-19T00:54:15.372Z,3.17
2018-07-19T00:56:43.907Z,3.23
2018-07-19T00:59:12.467Z,3.80
2018-07-19T01:01:41.200Z,3.47
2018-07-19T01:04:09.792Z,3.60
2018-07-19T01:06:38.379Z,3.83
2018-07-19T01:09:09.680Z,3.55
2018-07-19T01:11:38.503Z,3.90
2018-07-19T01:14:07.167Z,3.70
2018-07-19T01:16:36.066Z,3.73
2018-07-19T01:19:04.694Z,3.70
2018-07-19T01:21:33.627Z,4.10
2018-07-19T01:24:02.210Z,3.97
2018-07-19T01:26:30.742Z,3.70
2018-07-19T01:28:59.251Z,4.10
2018-07-19T01:31:27.815Z,3.70
2018-07-19T01:33:56.373Z,3.72
2018-07-19T01:36:25.041Z,3.80
2018-07-19T01:38:53.619Z,3.70
2018-07-19T01:41:33.377Z,4.20
2018-07-19T01:44:01.847Z,4.30
2018-07-19T01:46:30.368Z,4.30
2018-07-19T01:48:58.936Z,4.08
2018-07-19T01:51:27.443Z,3.90
2018-07-19T01:53:56.039Z,4.53
2018-07-19T01:56:24.708Z,4.30
2018-07-19T01:58:53.258Z,4.03
2018-07-19T02:01:21.975Z,4.20
2018-07-19T02:03:50.571Z,4.80
2018-07-19T02:06:19.055Z,4.50
2018-07-19T02:08:47.266Z,4.22
2018-07-19T02:11:15.896Z,4.17
2018-07-19T02:13:44.428Z,3.90
2018-07-19T02:16:12.933Z,4.20
2018-07-19T02:18:41.539Z,4.78
2018-07-19T02:21:10.133Z,4.78
2018-07-19T02:23:38.637Z,4.73
2018-07-19T02:26:07.412Z,4.30
2018-07-19T02:28:35.939Z,5.33
2018-07-19T02:31:04.447Z,3.83
2018-07-19T02:33:32.939Z,4.70
2018-07-19T02:36:01.458Z,4.13
2018-07-19T02:38:30.031Z,4.10
2018-07-19T02:40:58.588Z,4.50
2018-07-19T02:43:27.100Z,4.30
2018-07-19T02:45:55.713Z,4.50
2018-07-19T02:48:24.282Z,5.05
2018-07-19T02:50:52.882Z,5.20
2018-07-19T02:53:21.502Z,4.28
2018-07-19T02:55:50.045Z,4.03
2018-07-19T02:58:18.640Z,3.73
2018-07-19T03:00:47.184Z,4.30
2018-07-19T03:03:15.685Z,4.30
2018-07-19T03:05:44.212Z,4.07
2018-07-19T03:08:12.863Z,4.40
2018-07-19T03:10:41.391Z,4.20
2018-07-19T03:13:09.719Z,4.60
2018-07-19T03:15:38.324Z,4.40
2018-07-19T03:18:06.882Z,4.40
2018-07-19T03:20:35.439Z,4.62
2018-07-19T03:23:04.090Z,4.80
2018-07-19T03:25:32.635Z,4.05
2018-07-19T03:28:01.274Z,4.20
2018-07-19T03:30:29.803Z,4.62
2018-07-19T03:32:58.332Z,4.70
2018-07-19T03:35:26.828Z,4.80
2018-07-19T03:37:55.430Z,4.92
2018-07-19T03:40:24.052Z,4.10
2018-07-19T03:42:52.872Z,4.70
2018-07-19T03:45:21.404Z,4.75
2018-07-19T03:47:49.945Z,4.90
2018-07-19T03:50:18.478Z,4.37
2018-07-19T03:52:47.038Z,4.10
2018-07-19T03:55:15.584Z,4.60
2018-07-19T03:57:44.194Z,4.65
2018-07-19T04:00:12.750Z,4.20
2018-07-19T04:02:41.625Z,4.80
2018-07-19T04:05:10.640Z,5.12
2018-07-19T04:07:39.198Z,5.10
2018-07-19T04:10:07.764Z,4.97
2018-07-19T04:12:36.279Z,4.47
2018-07-19T04:15:04.961Z,4.75
2018-07-19T04:17:33.674Z,4.67
2018-07-19T04:20:02.229Z,5.10
2018-07-19T04:22:30.694Z,4.37
2018-07-19T04:24:59.376Z,4.40
2018-07-19T04:27:27.970Z,4.60
2018-07-19T04:29:56.529Z,4.90
2018-07-19T04:32:25.270Z,4.70
2018-07-19T04:34:53.763Z,4.85
2018-07-19T04:37:22.349Z,4.67
2018-07-19T04:39:50.868Z,4.50
2018-07-19T04:42:19.371Z,5.30
2018-07-19T04:44:47.999Z,4.72
2018-07-19T04:47:16.520Z,4.70
2018-07-19T04:49:45.087Z,5.12
2018-07-19T04:52:13.616Z,5.10
2018-07-19T04:54:42.253Z,4.97
2018-07-19T04:57:10.738Z,4.72
2018-07-19T04:59:38.934Z,4.30
2018-07-19T05:02:07.635Z,4.63
2018-07-19T05:04:36.261Z,5.87
2018-07-19T05:07:05.095Z,4.45
2018-07-19T05:09:33.811Z,5.00
2018-07-19T05:12:02.426Z,4.78
2018-07-19T05:14:30.972Z,5.20
2018-07-19T05:16:59.624Z,4.42
2018-07-19T05:19:28.140Z,4.70
2018-07-19T05:21:57.068Z,4.75
2018-07-19T05:24:25.772Z,4.80
2018-07-19T05:26:54.484Z,4.80
2018-07-19T05:29:23.027Z,4.92
2018-07-19T05:31:51.699Z,4.90
2018-07-19T05:34:20.320Z,5.30
2018-07-19T05:36:48.951Z,5.10
2018-07-19T05:39:17.555Z,4.47
2018-07-19T05:41:46.209Z,5.20
2018-07-19T05:44:14.764Z,5.30
2018-07-19T05:46:43.343Z,5.53
2018-07-19T05:49:11.918Z,5.67
2018-07-19T05:51:40.447Z,5.25
2018-07-19T05:54:09.135Z,5.77
2018-07-19T05:56:37.655Z,5.47
2018-07-19T05:59:06.215Z,5.60
2018-07-19T06:01:34.992Z,5.60
2018-07-19T06:04:03.618Z,5.10
2018-07-19T06:06:32.122Z,5.20
2018-07-19T06:09:00.684Z,4.70
2018-07-19T06:11:29.223Z,3.90
2018-07-19T06:13:57.769Z,4.40
2018-07-19T06:16:26.355Z,4.53
2018-07-19T06:18:54.959Z,4.58
2018-07-19T06:21:23.575Z,5.60
2018-07-19T06:23:52.227Z,5.85
2018-07-19T06:26:20.850Z,6.10
2018-07-19T06:28:49.356Z,6.05
2018-07-19T06:31:18.024Z,5.55
2018-07-19T06:33:46.612Z,5.60
2018-07-19T06:36:15.203Z,6.50
2018-07-19T06:38:43.755Z,6.30
2018-07-19T06:41:12.320Z,6.25
2018-07-19T06:43:41.038Z,5.93
2018-07-19T06:46:09.690Z,5.75
2018-07-19T06:48:38.520Z,5.42
2018-07-19T06:51:07.493Z,5.25
2018-07-19T06:53:36.099Z,5.47
2018-07-19T06:56:05.104Z,6.00
2018-07-19T06:58:33.654Z,5.90
2018-07-19T07:01:02.182Z,5.90
2018-07-19T07:03:30.717Z,5.70
2018-07-19T07:05:59.421Z,5.83
2018-07-19T07:08:28.078Z,6.00
2018-07-19T07:10:56.757Z,5.85
2018-07-19T07:13:25.354Z,5.80
2018-07-19T07:15:53.866Z,5.30
2018-07-19T07:18:22.644Z,5.30
2018-07-19T07:20:51.176Z,5.87
2018-07-19T07:23:19.723Z,5.08
2018-07-19T07:25:51.619Z,5.40
2018-07-19T07:28:21.992Z,5.60
2018-07-19T07:30:50.553Z,5.70
2018-07-19T07:33:19.741Z,5.20
2018-07-19T07:35:48.581Z,4.50
2018-07-19T07:38:18.226Z,4.50
2018-07-19T07:40:47.311Z,4.55
2018-07-19T07:43:16.029Z,4.40
2018-07-19T07:45:44.604Z,4.10
2018-07-19T07:48:13.184Z,4.50
2018-07-19T07:50:41.681Z,4.40
2018-07-19T07:53:10.221Z,4.58
2018-07-19T07:55:38.754Z,3.95
2018-07-19T07:58:06.912Z,4.20
2018-07-19T08:00:35.878Z,4.53
2018-07-19T08:03:04.520Z,4.57
2018-07-19T08:05:33.025Z,4.60
2018-07-19T08:08:02.554Z,4.78
2018-07-19T08:10:31.305Z,4.60
2018-07-19T08:12:59.859Z,4.40
2018-07-19T08:15:28.550Z,4.30
2018-07-19T08:17:57.186Z,4.70
2018-07-19T08:20:25.755Z,3.95
2018-07-19T08:22:54.422Z,4.12
2018-07-19T08:25:23.130Z,3.90
2018-07-19T08:27:51.691Z,4.08
2018-07-19T08:30:20.268Z,4.22
2018-07-19T08:32:48.814Z,4.15
2018-07-19T08:35:17.365Z,4.10
2018-07-19T08:37:45.942Z,3.60
2018-07-19T08:40:14.544Z,3.90
2018-07-19T08:42:43.091Z,3.80
2018-07-19T08:45:11.691Z,4.00
2018-07-19T08:47:40.229Z,3.90
2018-07-19T08:50:08.788Z,4.10
2018-07-19T08:52:37.371Z,3.65
2018-07-19T08:55:06.244Z,4.10
2018-07-19T08:57:34.910Z,4.33
2018-07-19T09:00:03.520Z,4.85
2018-07-19T09:02:32.068Z,3.80
2018-07-19T09:05:00.657Z,4.40
2018-07-19T09:07:29.240Z,3.80
2018-07-19T09:09:57.511Z,3.80
2018-07-19T09:12:26.155Z,3.83
2018-07-19T09:14:54.945Z,3.97
2018-07-19T09:17:23.512Z,3.93
2018-07-19T09:19:52.153Z,3.37
2018-07-19T09:22:20.736Z,4.30
2018-07-19T09:24:49.452Z,3.83
2018-07-19T09:27:18.045Z,4.03
2018-07-19T09:29:47.031Z,3.60
2018-07-19T09:32:15.851Z,3.80
2018-07-19T09:34:44.472Z,4.30
2018-07-19T09:37:13.820Z,5.10
2018-07-19T09:39:42.591Z,3.93
2018-07-19T09:42:11.101Z,3.87
2018-07-19T09:44:39.621Z,4.60
2018-07-19T09:47:08.171Z,3.60
2018-07-19T09:49:36.649Z,3.60
2018-07-19T09:52:05.276Z,3.40
2018-07-19T09:54:45.131Z,3.67
2018-07-19T09:57:13.658Z,4.03
2018-07-19T09:59:42.178Z,4.30
2018-07-19T10:02:10.681Z,4.20
2018-07-19T10:04:39.178Z,3.67
2018-07-19T10:07:07.839Z,3.30
2018-07-19T10:09:36.416Z,2.80
2018-07-19T10:12:05.072Z,2.60
2018-07-19T10:14:33.479Z,3.10
2018-07-19T10:17:02.279Z,3.08
2018-07-19T10:19:31.146Z,2.40
2018-07-19T10:22:00.378Z,2.90
2018-07-19T10:24:28.952Z,2.87
2018-07-19T10:26:57.505Z,2.98
2018-07-19T10:29:26.867Z,3.60
2018-07-19T10:31:55.759Z,3.07
2018-07-19T10:34:24.195Z,2.60
2018-07-19T10:36:53.110Z,2.60
2018-07-19T10:39:21.876Z,2.80
2018-07-19T10:41:50.670Z,3.20
2018-07-19T10:44:19.225Z,2.80
2018-07-19T10:46:47.805Z,2.60
2018-07-19T10:49:16.322Z,2.90
2018-07-19T10:51:44.820Z,2.80
2018-07-19T10:54:13.322Z,2.60
2018-07-19T10:56:41.910Z,2.70
2018-07-19T10:59:10.414Z,2.43
2018-07-19T11:01:39.051Z,2.63
2018-07-19T11:04:07.549Z,3.30
2018-07-19T11:06:36.037Z,2.73
2018-07-19T11:09:07.860Z,2.83
2018-07-19T11:11:36.369Z,2.60
2018-07-19T11:14:06.275Z,2.50
2018-07-19T11:16:34.812Z,2.80
2018-07-19T11:19:03.240Z,2.43
2018-07-19T11:21:31.727Z,3.13
2018-07-19T11:24:00.190Z,3.10
2018-07-19T11:26:28.823Z,2.60
2018-07-19T11:28:57.526Z,2.70
2018-07-19T11:31:26.123Z,3.53
2018-07-19T11:33:54.604Z,2.77
2018-07-19T11:36:23.124Z,2.60
2018-07-19T11:38:51.747Z,3.00
2018-07-19T11:41:20.439Z,2.70
2018-07-19T11:43:48.592Z,3.07
2018-07-19T11:46:17.425Z,2.77
2018-07-19T11:48:45.907Z,2.63
2018-07-19T11:51:14.459Z,3.00
2018-07-19T11:53:42.933Z,2.63
2018-07-19T11:56:11.466Z,2.50
2018-07-19T11:58:40.072Z,2.60
2018-07-19T12:01:08.547Z,2.90
2018-07-19T12:03:37.014Z,2.73
2018-07-19T12:06:05.568Z,2.37
2018-07-19T12:08:34.166Z,2.90
2018-07-19T12:11:02.779Z,2.60
2018-07-19T12:13:31.371Z,2.40
2018-07-19T12:16:00.021Z,3.07
2018-07-19T12:18:28.505Z,2.60
2018-07-19T12:20:57.035Z,2.53
2018-07-19T12:23:25.546Z,2.93
2018-07-19T12:25:54.283Z,2.90
2018-07-19T12:28:22.871Z,2.60
2018-07-19T12:30:51.369Z,2.77
2018-07-19T12:33:19.635Z,2.40
2018-07-19T12:35:48.108Z,2.53
2018-07-19T12:38:16.658Z,2.50
2018-07-19T12:40:45.857Z,2.40
2018-07-19T12:43:14.352Z,2.30
2018-07-19T12:45:46.036Z,2.60
2018-07-19T12:48:14.490Z,2.13
2018-07-19T12:50:42.970Z,2.77
2018-07-19T12:53:11.431Z,3.80
2018-07-19T12:55:39.931Z,2.63
2018-07-19T12:58:08.498Z,3.13
2018-07-19T13:00:37.009Z,3.00
2018-07-19T13:03:05.491Z,3.00
2018-07-19T13:05:34.027Z,3.53
2018-07-19T13:08:02.543Z,3.07
2018-07-19T13:10:31.127Z,2.67
2018-07-19T13:13:00.274Z,3.00
2018-07-19T13:15:30.191Z,3.03
2018-07-19T13:17:58.696Z,3.03
2018-07-19T13:20:27.187Z,2.93
2018-07-19T13:22:55.814Z,3.10
2018-07-19T13:25:24.417Z,2.80
2018-07-19T13:27:52.901Z,3.13
2018-07-19T13:30:21.577Z,2.63
2018-07-19T13:32:50.121Z,2.60
2018-07-19T13:35:18.713Z,3.20
2018-07-19T13:37:47.649Z,3.23
2018-07-19T13:40:16.240Z,3.23
2018-07-19T13:42:45.046Z,3.10
2018-07-19T13:45:13.789Z,3.13
2018-07-19T13:47:42.275Z,3.00
2018-07-19T13:50:10.880Z,2.80
2018-07-19T13:52:50.583Z,2.63
2018-07-19T13:55:19.134Z,2.63
2018-07-19T13:57:47.384Z,2.53
2018-07-19T14:00:16.006Z,3.10
2018-07-19T14:02:44.611Z,2.97
2018-07-19T14:05:14.095Z,2.50
2018-07-19T14:07:42.639Z,3.10
2018-07-19T14:10:11.241Z,2.70
2018-07-19T14:12:39.743Z,2.87
2018-07-19T14:15:08.267Z,2.70
2018-07-19T14:17:36.795Z,2.37
2018-07-19T14:20:05.677Z,2.77
2018-07-19T14:22:34.237Z,2.80
2018-07-19T14:25:02.805Z,2.70
2018-07-19T14:27:31.330Z,2.23
2018-07-19T14:29:59.771Z,3.00
2018-07-19T14:32:28.461Z,2.33
2018-07-19T14:34:56.923Z,2.40
2018-07-19T14:37:25.388Z,2.90
2018-07-19T14:39:53.959Z,2.93
2018-07-19T14:42:22.508Z,3.10
2018-07-19T14:44:50.980Z,2.13
2018-07-19T14:47:19.500Z,2.90
2018-07-19T14:49:48.024Z,2.80
2018-07-19T14:52:17.110Z,2.73
2018-07-19T14:54:45.711Z,2.37
2018-07-19T14:57:14.197Z,2.37
2018-07-19T14:59:42.678Z,2.70
2018-07-19T15:02:11.249Z,2.70
2018-07-19T15:04:39.728Z,2.80
2018-07-19T15:07:08.255Z,3.00
2018-07-19T15:09:36.733Z,3.53
2018-07-19T15:12:05.374Z,3.00
2018-07-19T15:14:33.907Z,3.00
2018-07-19T15:17:02.460Z,2.70
2018-07-19T15:19:31.076Z,2.93
2018-07-19T15:21:59.743Z,2.90
2018-07-19T15:24:28.434Z,2.30
2018-07-19T15:26:56.903Z,2.30
2018-07-19T15:29:25.480Z,3.20
2018-07-19T15:31:53.998Z,2.80
2018-07-19T15:34:22.588Z,2.37
2018-07-19T15:36:51.388Z,3.03
2018-07-19T15:39:19.970Z,3.00
2018-07-19T15:41:48.468Z,2.80
2018-07-19T15:44:17.081Z,2.50
2018-07-19T15:46:45.657Z,2.20
2018-07-19T15:49:14.211Z,2.37
2018-07-19T15:51:42.761Z,2.80
2018-07-19T15:54:11.327Z,2.70
2018-07-19T15:56:40.008Z,3.43
2018-07-19T15:59:08.560Z,2.60
2018-07-19T16:01:37.258Z,2.53
2018-07-19T16:04:06.196Z,2.53
2018-07-19T16:06:34.920Z,2.47
2018-07-19T16:09:06.186Z,2.67
2018-07-19T16:11:34.531Z,2.07
2018-07-19T16:14:03.114Z,2.50
2018-07-19T16:16:31.681Z,2.83
2018-07-19T16:19:00.285Z,2.47
2018-07-19T16:21:28.966Z,2.20
2018-07-19T16:23:57.569Z,2.43
2018-07-19T16:26:26.183Z,2.53
2018-07-19T16:28:54.712Z,2.73
2018-07-19T16:31:23.463Z,2.33
2018-07-19T16:33:52.089Z,2.67
2018-07-19T16:36:20.806Z,2.80
2018-07-19T16:38:49.453Z,2.27
2018-07-19T16:41:18.005Z,2.23
2018-07-19T16:43:46.720Z,3.20
2018-07-19T16:46:15.220Z,3.03
2018-07-19T16:48:43.812Z,2.77
2018-07-19T16:51:12.330Z,2.47
2018-07-19T16:53:41.088Z,2.60
2018-07-19T16:56:09.740Z,2.57
2018-07-19T16:58:38.328Z,2.10
2018-07-19T17:01:06.953Z,2.80
2018-07-19T17:03:35.620Z,3.07
2018-07-19T17:06:04.201Z,2.57
2018-07-19T17:08:32.785Z,3.40
2018-07-19T17:11:01.372Z,2.73
2018-07-19T17:13:29.904Z,2.73
2018-07-19T17:15:58.506Z,2.73
2018-07-19T17:18:27.134Z,2.67
2018-07-19T17:20:55.959Z,2.57
2018-07-19T17:23:24.673Z,2.83
2018-07-19T17:25:53.339Z,3.17
2018-07-19T17:28:22.378Z,2.70
2018-07-19T17:30:51.156Z,2.80
2018-07-19T17:33:19.936Z,2.83
2018-07-19T17:35:48.623Z,2.80
2018-07-19T17:38:17.467Z,3.67
2018-07-19T17:40:46.174Z,2.90
2018-07-19T17:43:14.952Z,2.70
2018-07-19T17:45:43.881Z,2.63
2018-07-19T17:48:12.699Z,2.43
2018-07-19T17:50:41.516Z,2.90
2018-07-19T17:53:10.255Z,2.67
2018-07-19T17:55:38.952Z,3.53
2018-07-19T17:58:07.812Z,2.80
2018-07-19T18:00:36.625Z,3.00
2018-07-19T18:03:05.449Z,2.70
2018-07-19T18:05:34.284Z,2.97
2018-07-19T18:08:02.924Z,2.50
2018-07-19T18:10:31.574Z,3.17
2018-07-19T18:13:00.333Z,3.03
2018-07-19T18:15:29.002Z,2.93
2018-07-19T18:17:57.622Z,2.90
2018-07-19T18:20:26.352Z,2.87
2018-07-19T18:22:55.111Z,2.60
2018-07-19T18:25:23.893Z,3.20
2018-07-19T18:27:52.469Z,2.63
2018-07-19T18:30:21.152Z,2.20
2018-07-19T18:32:49.765Z,3.00
2018-07-19T18:35:19.189Z,2.77
2018-07-19T18:37:48.706Z,3.10
2018-07-19T18:40:17.798Z,3.10
2018-07-19T18:42:46.652Z,3.77
2018-07-19T18:45:15.794Z,3.43
2018-07-19T18:47:44.100Z,3.70
2018-07-19T18:50:12.759Z,3.40
2018-07-19T18:52:41.792Z,3.60
2018-07-19T18:55:10.503Z,3.47
2018-07-19T18:57:39.342Z,3.40
2018-07-19T19:00:08.387Z,3.47
2018-07-19T19:02:36.985Z,2.90
2018-07-19T19:05:05.842Z,3.23
2018-07-19T19:07:34.628Z,3.40
2018-07-19T19:10:03.893Z,4.23
2018-07-19T19:12:32.608Z,4.07
2018-07-19T19:15:01.587Z,3.33
2018-07-19T19:17:30.576Z,5.10
2018-07-19T19:19:59.371Z,9.33
2018-07-19T19:22:28.140Z,10.20
2018-07-19T19:24:56.956Z,7.07
2018-07-19T19:27:25.709Z,8.23
2018-07-19T19:29:54.506Z,27.70
2018-07-19T19:32:23.275Z,15.40
2018-07-19T19:34:52.095Z,11.40
2018-07-19T19:37:20.995Z,7.83
2018-07-19T19:39:49.820Z,8.97
2018-07-19T19:42:18.466Z,7.07
2018-07-19T19:44:47.236Z,8.10
2018-07-19T19:47:15.857Z,6.40
2018-07-19T19:49:44.551Z,7.40
2018-07-19T19:52:13.294Z,7.40
2018-07-19T19:54:42.016Z,6.10
2018-07-19T19:57:10.842Z,8.13
2018-07-19T19:59:39.495Z,6.67
2018-07-19T20:02:08.241Z,7.30
2018-07-19T20:04:37.053Z,6.27
2018-07-19T20:07:06.002Z,6.40
2018-07-19T20:09:34.806Z,6.67
2018-07-19T20:12:03.373Z,7.03
2018-07-19T20:14:31.983Z,5.67
2018-07-19T20:17:00.740Z,5.33
2018-07-19T20:19:29.011Z,5.60
2018-07-19T20:21:57.783Z,4.73
2018-07-19T20:24:26.343Z,5.60
2018-07-19T20:26:55.046Z,4.87
2018-07-19T20:29:23.608Z,4.93
2018-07-19T20:31:52.335Z,4.80
2018-07-19T20:34:21.154Z,5.40
2018-07-19T20:36:49.892Z,5.00
2018-07-19T20:39:18.678Z,5.13
2018-07-19T20:41:47.301Z,5.60
2018-07-19T20:44:15.953Z,5.07
2018-07-19T20:46:44.520Z,5.30
2018-07-19T20:49:13.213Z,5.20
2018-07-19T20:51:42.025Z,5.80
2018-07-19T20:54:10.829Z,5.23
2018-07-19T20:56:39.396Z,5.43
2018-07-19T20:59:08.202Z,4.87
2018-07-19T21:01:36.822Z,5.53
2018-07-19T21:04:05.571Z,5.23
2018-07-19T21:06:34.227Z,5.40
2018-07-19T21:09:02.962Z,6.07
2018-07-19T21:11:31.493Z,4.83
2018-07-19T21:14:00.124Z,4.67
2018-07-19T21:16:28.913Z,5.50
2018-07-19T21:18:57.513Z,5.43
2018-07-19T21:21:26.163Z,5.13
2018-07-19T21:23:54.850Z,5.30
2018-07-19T21:26:23.616Z,6.07
2018-07-19T21:28:52.320Z,6.30
2018-07-19T21:31:20.586Z,5.10
2018-07-19T21:33:49.138Z,5.03
2018-07-19T21:36:17.788Z,5.90
2018-07-19T21:38:46.491Z,5.47
2018-07-19T21:41:15.023Z,4.40
2018-07-19T21:43:43.704Z,4.80
2018-07-19T21:46:12.467Z,5.00
2018-07-19T21:48:41.090Z,5.20
2018-07-19T21:51:09.980Z,5.10
2018-07-19T21:53:38.600Z,5.07
2018-07-19T21:56:07.357Z,5.30
2018-07-19T21:58:36.084Z,5.63
2018-07-19T22:01:11.045Z,4.93
2018-07-19T22:03:40.064Z,4.63
2018-07-19T22:06:09.580Z,4.90
2018-07-19T22:08:38.247Z,4.37
2018-07-19T22:11:07.073Z,4.43
2018-07-19T22:13:35.754Z,5.13
2018-07-19T22:16:04.329Z,4.50
2018-07-19T22:18:33.122Z,4.70
2018-07-19T22:21:02.029Z,5.53
2018-07-19T22:23:30.750Z,5.47
2018-07-19T22:25:59.467Z,4.97
2018-07-19T22:28:28.152Z,5.67
2018-07-19T22:30:56.758Z,5.00
2018-07-19T22:33:25.403Z,5.10
2018-07-19T22:35:54.152Z,4.70
2018-07-19T22:38:22.744Z,5.20
2018-07-19T22:40:51.253Z,4.87
2018-07-19T22:43:19.973Z,4.23
2018-07-19T22:45:48.677Z,5.03
2018-07-19T22:48:17.274Z,4.73
2018-07-19T22:50:45.949Z,4.70
2018-07-19T22:53:14.967Z,5.63
2018-07-19T22:55:43.623Z,5.27
2018-07-19T22:58:12.248Z,4.43
2018-07-19T23:00:40.873Z,5.07
2018-07-19T23:03:09.465Z,4.50
2018-07-19T23:05:38.005Z,5.50
2018-07-19T23:08:06.525Z,5.07
2018-07-19T23:10:35.160Z,5.70
2018-07-19T23:13:03.673Z,5.47
2018-07-19T23:15:32.254Z,5.50
2018-07-19T23:18:01.008Z,5.50
2018-07-19T23:20:29.631Z,5.93
2018-07-19T23:22:59.258Z,5.27
2018-07-19T23:25:27.775Z,5.50
2018-07-19T23:27:57.115Z,6.30
2018-07-19T23:30:27.925Z,7.17
2018-07-19T23:32:56.488Z,5.90
2018-07-19T23:35:29.169Z,6.03
2018-07-19T23:37:59.542Z,6.03
2018-07-19T23:40:30.928Z,6.00
2018-07-19T23:43:02.622Z,6.03
2018-07-19T23:45:37.289Z,6.43
2018-07-19T23:48:05.934Z,6.10
2018-07-19T23:50:34.571Z,6.87
2018-07-19T23:53:03.059Z,5.63
2018-07-19T23:55:31.755Z,6.30
2018-07-19T23:58:00.551Z,5.67
